sensor_id;sensor_type;location;lat;lon;timestamp;temperature;humidity
4727;DHT22;2377;51.734;8.950;2022-11-02T00:00:29;10.60;99.90
4727;DHT22;2377;51.734;8.950;2022-11-02T00:02:56;10.60;99.90
4727;DHT22;2377;51.734;8.950;2022-11-02T00:05:23;10.60;99.90
4727;DHT22;2377;51.734;8.950;2022-11-02T00:07:51;10.60;99.90
4727;DHT22;2377;51.734;8.950;2022-11-02T00:10:20;10.60;99.90
4727;DHT22;2377;51.734;8.950;2022-11-02T00:12:50;10.60;99.90
4727;DHT22;2377;51.734;8.950;2022-11-02T00:15:18;10.60;99.90
4727;DHT22;2377;51.734;8.950;2022-11-02T00:17:47;10.50;99.90
4727;DHT22;2377;51.734;8.950;2022-11-02T00:20:17;10.50;99.90
4727;DHT22;2377;51.734;8.950;2022-11-02T00:22:48;10.50;99.90
4727;DHT22;2377;51.734;8.950;2022-11-02T00:25:21;10.50;99.90
4727;DHT22;2377;51.734;8.950;2022-11-02T00:27:51;10.50;99.90
4727;DHT22;2377;51.734;8.950;2022-11-02T00:30:18;10.60;99.90
4727;DHT22;2377;51.734;8.950;2022-11-02T00:32:46;10.60;99.90
4727;DHT22;2377;51.734;8.950;2022-11-02T00:35:13;10.60;99.90
4727;DHT22;2377;51.734;8.950;2022-11-02T00:37:40;10.60;99.90
4727;DHT22;2377;51.734;8.950;2022-11-02T00:40:08;10.60;99.90
4727;DHT22;2377;51.734;8.950;2022-11-02T00:42:36;10.60;99.90
4727;DHT22;2377;51.734;8.950;2022-11-02T00:45:06;10.60;99.90
4727;DHT22;2377;51.734;8.950;2022-11-02T00:47:34;10.60;99.90
4727;DHT22;2377;51.734;8.950;2022-11-02T00:50:02;10.60;99.90
4727;DHT22;2377;51.734;8.950;2022-11-02T00:52:29;10.60;99.90
4727;DHT22;2377;51.734;8.950;2022-11-02T00:54:57;10.60;99.90
4727;DHT22;2377;51.734;8.950;2022-11-02T00:57:24;10.70;99.90
4727;DHT22;2377;51.734;8.950;2022-11-02T00:59:51;10.60;99.90
4727;DHT22;2377;51.734;8.950;2022-11-02T01:02:20;10.60;99.90
4727;DHT22;2377;51.734;8.950;2022-11-02T01:04:47;10.60;99.90
4727;DHT22;2377;51.734;8.950;2022-11-02T01:07:14;10.60;99.90
4727;DHT22;2377;51.734;8.950;2022-11-02T01:09:41;10.50;99.90
4727;DHT22;2377;51.734;8.950;2022-11-02T01:12:08;10.50;99.90
4727;DHT22;2377;51.734;8.950;2022-11-02T01:14:36;10.50;99.90
4727;DHT22;2377;51.734;8.950;2022-11-02T01:17:03;10.40;99.90
4727;DHT22;2377;51.734;8.950;2022-11-02T01:19:32;10.40;99.90
4727;DHT22;2377;51.734;8.950;2022-11-02T01:21:59;10.40;99.90
4727;DHT22;2377;51.734;8.950;2022-11-02T01:24:26;10.30;99.90
4727;DHT22;2377;51.734;8.950;2022-11-02T01:26:53;10.30;99.90
4727;DHT22;2377;51.734;8.950;2022-11-02T01:29:21;10.30;99.90
4727;DHT22;2377;51.734;8.950;2022-11-02T01:31:48;10.30;99.90
4727;DHT22;2377;51.734;8.950;2022-11-02T01:34:17;10.30;99.90
4727;DHT22;2377;51.734;8.950;2022-11-02T01:36:46;10.30;99.90
4727;DHT22;2377;51.734;8.950;2022-11-02T01:39:14;10.30;99.90
4727;DHT22;2377;51.734;8.950;2022-11-02T01:41:42;10.30;99.90
4727;DHT22;2377;51.734;8.950;2022-11-02T01:44:26;10.30;99.90
4727;DHT22;2377;51.734;8.950;2022-11-02T01:47:00;10.40;99.90
4727;DHT22;2377;51.734;8.950;2022-11-02T01:49:37;10.40;99.90
4727;DHT22;2377;51.734;8.950;2022-11-02T01:52:12;10.40;99.90
4727;DHT22;2377;51.734;8.950;2022-11-02T01:54:44;10.40;99.90
4727;DHT22;2377;51.734;8.950;2022-11-02T01:57:18;10.50;99.90
4727;DHT22;2377;51.734;8.950;2022-11-02T01:59:50;10.50;99.90
4727;DHT22;2377;51.734;8.950;2022-11-02T02:02:24;10.60;99.90
4727;DHT22;2377;51.734;8.950;2022-11-02T02:04:59;10.60;99.90
4727;DHT22;2377;51.734;8.950;2022-11-02T02:07:31;10.60;99.90
4727;DHT22;2377;51.734;8.950;2022-11-02T02:10:03;10.60;99.90
4727;DHT22;2377;51.734;8.950;2022-11-02T02:12:31;10.70;99.90
4727;DHT22;2377;51.734;8.950;2022-11-02T02:15:00;10.70;99.90
4727;DHT22;2377;51.734;8.950;2022-11-02T02:17:34;10.70;99.90
4727;DHT22;2377;51.734;8.950;2022-11-02T02:20:14;10.80;99.90
4727;DHT22;2377;51.734;8.950;2022-11-02T02:23:12;10.80;99.90
4727;DHT22;2377;51.734;8.950;2022-11-02T02:26:25;10.70;99.90
4727;DHT22;2377;51.734;8.950;2022-11-02T02:29:18;10.70;99.90
4727;DHT22;2377;51.734;8.950;2022-11-02T02:31:54;10.70;99.90
4727;DHT22;2377;51.734;8.950;2022-11-02T02:34:31;10.70;99.90
4727;DHT22;2377;51.734;8.950;2022-11-02T02:37:06;10.70;99.90
4727;DHT22;2377;51.734;8.950;2022-11-02T02:39:45;10.70;99.90
4727;DHT22;2377;51.734;8.950;2022-11-02T02:42:20;10.70;99.90
4727;DHT22;2377;51.734;8.950;2022-11-02T02:45:00;10.70;99.90
4727;DHT22;2377;51.734;8.950;2022-11-02T02:47:34;10.70;99.90
4727;DHT22;2377;51.734;8.950;2022-11-02T02:50:12;10.80;99.90
4727;DHT22;2377;51.734;8.950;2022-11-02T02:52:46;10.80;99.90
4727;DHT22;2377;51.734;8.950;2022-11-02T02:55:19;10.80;99.90
4727;DHT22;2377;51.734;8.950;2022-11-02T02:57:51;10.60;99.90
4727;DHT22;2377;51.734;8.950;2022-11-02T03:00:23;10.70;99.90
4727;DHT22;2377;51.734;8.950;2022-11-02T03:02:51;10.70;99.90
4727;DHT22;2377;51.734;8.950;2022-11-02T03:05:29;10.70;99.90
4727;DHT22;2377;51.734;8.950;2022-11-02T03:08:02;10.60;99.90
4727;DHT22;2377;51.734;8.950;2022-11-02T03:10:36;10.60;99.90
4727;DHT22;2377;51.734;8.950;2022-11-02T03:13:34;10.60;99.90
4727;DHT22;2377;51.734;8.950;2022-11-02T03:16:18;10.60;99.90
4727;DHT22;2377;51.734;8.950;2022-11-02T03:19:17;10.60;99.90
4727;DHT22;2377;51.734;8.950;2022-11-02T03:21:54;10.60;99.90
4727;DHT22;2377;51.734;8.950;2022-11-02T03:24:32;10.50;99.90
4727;DHT22;2377;51.734;8.950;2022-11-02T03:27:13;10.50;99.90
4727;DHT22;2377;51.734;8.950;2022-11-02T03:29:51;10.50;99.90
4727;DHT22;2377;51.734;8.950;2022-11-02T03:32:25;10.50;99.90
4727;DHT22;2377;51.734;8.950;2022-11-02T03:35:02;10.50;99.90
4727;DHT22;2377;51.734;8.950;2022-11-02T03:37:41;10.50;99.90
4727;DHT22;2377;51.734;8.950;2022-11-02T03:40:16;10.50;99.90
4727;DHT22;2377;51.734;8.950;2022-11-02T03:42:48;10.50;99.90
4727;DHT22;2377;51.734;8.950;2022-11-02T03:45:19;10.50;99.90
4727;DHT22;2377;51.734;8.950;2022-11-02T03:47:53;10.50;99.90
4727;DHT22;2377;51.734;8.950;2022-11-02T03:50:25;10.50;99.90
4727;DHT22;2377;51.734;8.950;2022-11-02T03:52:55;10.50;99.90
4727;DHT22;2377;51.734;8.950;2022-11-02T03:55:29;10.40;99.90
4727;DHT22;2377;51.734;8.950;2022-11-02T03:58:00;10.50;99.90
4727;DHT22;2377;51.734;8.950;2022-11-02T04:00:31;10.50;99.90
4727;DHT22;2377;51.734;8.950;2022-11-02T04:03:02;10.50;99.90
4727;DHT22;2377;51.734;8.950;2022-11-02T04:05:34;10.50;99.90
4727;DHT22;2377;51.734;8.950;2022-11-02T04:08:02;10.50;99.90
4727;DHT22;2377;51.734;8.950;2022-11-02T04:10:49;10.50;99.90
4727;DHT22;2377;51.734;8.950;2022-11-02T04:13:36;10.50;99.90
4727;DHT22;2377;51.734;8.950;2022-11-02T04:16:21;10.50;99.90
4727;DHT22;2377;51.734;8.950;2022-11-02T04:18:50;10.40;99.90
4727;DHT22;2377;51.734;8.950;2022-11-02T04:21:34;10.40;99.90
4727;DHT22;2377;51.734;8.950;2022-11-02T04:24:02;10.30;99.90
4727;DHT22;2377;51.734;8.950;2022-11-02T04:26:47;10.30;99.90
4727;DHT22;2377;51.734;8.950;2022-11-02T04:29:14;10.20;99.90
4727;DHT22;2377;51.734;8.950;2022-11-02T04:31:41;10.30;99.90
4727;DHT22;2377;51.734;8.950;2022-11-02T04:34:10;10.20;99.90
4727;DHT22;2377;51.734;8.950;2022-11-02T04:36:36;10.10;99.90
4727;DHT22;2377;51.734;8.950;2022-11-02T04:39:03;10.10;99.90
4727;DHT22;2377;51.734;8.950;2022-11-02T04:41:29;10.00;99.90
4727;DHT22;2377;51.734;8.950;2022-11-02T04:44:09;10.10;99.90
4727;DHT22;2377;51.734;8.950;2022-11-02T04:46:38;10.00;99.90
4727;DHT22;2377;51.734;8.950;2022-11-02T04:49:07;10.00;99.90
4727;DHT22;2377;51.734;8.950;2022-11-02T04:51:37;10.00;99.90
4727;DHT22;2377;51.734;8.950;2022-11-02T04:54:05;9.90;99.90
4727;DHT22;2377;51.734;8.950;2022-11-02T04:56:33;9.90;99.90
4727;DHT22;2377;51.734;8.950;2022-11-02T04:59:00;9.90;99.90
4727;DHT22;2377;51.734;8.950;2022-11-02T05:01:28;9.90;99.90
4727;DHT22;2377;51.734;8.950;2022-11-02T05:03:56;9.80;99.90
4727;DHT22;2377;51.734;8.950;2022-11-02T05:06:24;9.90;99.90
4727;DHT22;2377;51.734;8.950;2022-11-02T05:08:52;9.90;99.90
4727;DHT22;2377;51.734;8.950;2022-11-02T05:11:20;10.00;99.90
4727;DHT22;2377;51.734;8.950;2022-11-02T05:13:48;10.00;99.90
4727;DHT22;2377;51.734;8.950;2022-11-02T05:16:15;10.00;99.90
4727;DHT22;2377;51.734;8.950;2022-11-02T05:18:43;10.00;99.90
4727;DHT22;2377;51.734;8.950;2022-11-02T05:21:11;10.00;99.90
4727;DHT22;2377;51.734;8.950;2022-11-02T05:23:38;10.00;99.90
4727;DHT22;2377;51.734;8.950;2022-11-02T05:26:10;10.00;99.90
4727;DHT22;2377;51.734;8.950;2022-11-02T05:28:37;10.00;99.90
4727;DHT22;2377;51.734;8.950;2022-11-02T05:31:05;10.10;99.90
4727;DHT22;2377;51.734;8.950;2022-11-02T05:33:33;10.30;99.90
4727;DHT22;2377;51.734;8.950;2022-11-02T05:36:01;10.30;99.90
4727;DHT22;2377;51.734;8.950;2022-11-02T05:38:29;10.40;99.90
4727;DHT22;2377;51.734;8.950;2022-11-02T05:40:57;10.40;99.90
4727;DHT22;2377;51.734;8.950;2022-11-02T05:43:27;10.50;99.90
4727;DHT22;2377;51.734;8.950;2022-11-02T05:45:56;10.50;99.90
4727;DHT22;2377;51.734;8.950;2022-11-02T05:48:26;10.50;99.90
4727;DHT22;2377;51.734;8.950;2022-11-02T05:50:54;10.50;99.90
4727;DHT22;2377;51.734;8.950;2022-11-02T05:53:22;10.60;99.90
4727;DHT22;2377;51.734;8.950;2022-11-02T05:55:50;10.60;99.90
4727;DHT22;2377;51.734;8.950;2022-11-02T05:58:18;10.60;99.90
4727;DHT22;2377;51.734;8.950;2022-11-02T06:00:46;10.60;99.90
4727;DHT22;2377;51.734;8.950;2022-11-02T06:03:13;10.70;99.90
4727;DHT22;2377;51.734;8.950;2022-11-02T06:05:42;10.60;99.90
4727;DHT22;2377;51.734;8.950;2022-11-02T06:08:09;10.60;99.90
4727;DHT22;2377;51.734;8.950;2022-11-02T06:10:36;10.70;99.90
4727;DHT22;2377;51.734;8.950;2022-11-02T06:13:07;10.70;99.90
4727;DHT22;2377;51.734;8.950;2022-11-02T06:15:34;10.70;99.90
4727;DHT22;2377;51.734;8.950;2022-11-02T06:18:02;10.70;99.90
4727;DHT22;2377;51.734;8.950;2022-11-02T06:20:30;10.70;99.90
4727;DHT22;2377;51.734;8.950;2022-11-02T06:22:57;10.70;99.90
4727;DHT22;2377;51.734;8.950;2022-11-02T06:25:24;10.80;99.90
4727;DHT22;2377;51.734;8.950;2022-11-02T06:27:53;10.70;99.90
4727;DHT22;2377;51.734;8.950;2022-11-02T06:30:21;10.80;99.90
4727;DHT22;2377;51.734;8.950;2022-11-02T06:32:50;10.80;99.90
4727;DHT22;2377;51.734;8.950;2022-11-02T06:35:21;10.70;99.90
4727;DHT22;2377;51.734;8.950;2022-11-02T06:37:49;10.70;99.90
4727;DHT22;2377;51.734;8.950;2022-11-02T06:40:16;10.80;99.90
4727;DHT22;2377;51.734;8.950;2022-11-02T06:42:44;10.80;99.90
4727;DHT22;2377;51.734;8.950;2022-11-02T06:45:11;10.90;99.90
4727;DHT22;2377;51.734;8.950;2022-11-02T06:47:38;10.90;99.90
4727;DHT22;2377;51.734;8.950;2022-11-02T06:50:06;10.90;99.90
4727;DHT22;2377;51.734;8.950;2022-11-02T06:52:41;11.00;99.90
4727;DHT22;2377;51.734;8.950;2022-11-02T06:55:09;11.00;99.90
4727;DHT22;2377;51.734;8.950;2022-11-02T06:57:38;11.00;99.90
4727;DHT22;2377;51.734;8.950;2022-11-02T07:00:07;11.00;99.90
4727;DHT22;2377;51.734;8.950;2022-11-02T07:02:37;11.10;99.90
4727;DHT22;2377;51.734;8.950;2022-11-02T07:05:06;11.10;99.90
4727;DHT22;2377;51.734;8.950;2022-11-02T07:07:34;11.10;99.90
4727;DHT22;2377;51.734;8.950;2022-11-02T07:10:03;11.20;99.90
4727;DHT22;2377;51.734;8.950;2022-11-02T07:12:36;11.20;99.90
4727;DHT22;2377;51.734;8.950;2022-11-02T07:15:05;11.20;99.90
4727;DHT22;2377;51.734;8.950;2022-11-02T07:17:33;11.30;99.90
4727;DHT22;2377;51.734;8.950;2022-11-02T07:20:00;11.30;99.90
4727;DHT22;2377;51.734;8.950;2022-11-02T07:22:28;11.30;99.90
4727;DHT22;2377;51.734;8.950;2022-11-02T07:24:57;11.30;99.90
4727;DHT22;2377;51.734;8.950;2022-11-02T07:27:24;11.40;99.90
4727;DHT22;2377;51.734;8.950;2022-11-02T07:29:51;11.50;99.90
4727;DHT22;2377;51.734;8.950;2022-11-02T07:32:18;11.50;99.90
4727;DHT22;2377;51.734;8.950;2022-11-02T07:34:46;11.60;99.90
4727;DHT22;2377;51.734;8.950;2022-11-02T07:37:14;11.60;99.90
4727;DHT22;2377;51.734;8.950;2022-11-02T07:39:41;11.60;99.90
4727;DHT22;2377;51.734;8.950;2022-11-02T07:42:10;11.60;99.90
4727;DHT22;2377;51.734;8.950;2022-11-02T07:44:37;11.70;99.90
4727;DHT22;2377;51.734;8.950;2022-11-02T07:47:04;11.80;99.90
4727;DHT22;2377;51.734;8.950;2022-11-02T07:49:31;12.00;99.90
4727;DHT22;2377;51.734;8.950;2022-11-02T07:51:59;12.00;99.90
4727;DHT22;2377;51.734;8.950;2022-11-02T07:54:26;12.10;99.90
4727;DHT22;2377;51.734;8.950;2022-11-02T07:56:53;12.10;99.90
4727;DHT22;2377;51.734;8.950;2022-11-02T07:59:22;12.20;99.90
4727;DHT22;2377;51.734;8.950;2022-11-02T08:01:49;12.20;99.90
4727;DHT22;2377;51.734;8.950;2022-11-02T08:04:16;12.30;99.90
4727;DHT22;2377;51.734;8.950;2022-11-02T08:06:43;12.20;99.90
4727;DHT22;2377;51.734;8.950;2022-11-02T08:09:11;12.20;99.90
4727;DHT22;2377;51.734;8.950;2022-11-02T08:11:39;12.20;99.90
4727;DHT22;2377;51.734;8.950;2022-11-02T08:14:06;12.10;99.90
4727;DHT22;2377;51.734;8.950;2022-11-02T08:16:35;12.10;99.90
4727;DHT22;2377;51.734;8.950;2022-11-02T08:19:03;12.10;99.90
4727;DHT22;2377;51.734;8.950;2022-11-02T08:21:30;12.10;99.90
4727;DHT22;2377;51.734;8.950;2022-11-02T08:23:58;12.10;99.90
4727;DHT22;2377;51.734;8.950;2022-11-02T08:26:25;12.10;99.90
4727;DHT22;2377;51.734;8.950;2022-11-02T08:28:52;12.10;99.90
4727;DHT22;2377;51.734;8.950;2022-11-02T08:31:19;12.10;99.90
4727;DHT22;2377;51.734;8.950;2022-11-02T08:33:48;12.10;99.90
4727;DHT22;2377;51.734;8.950;2022-11-02T08:36:15;12.10;99.90
4727;DHT22;2377;51.734;8.950;2022-11-02T08:38:42;12.10;99.90
4727;DHT22;2377;51.734;8.950;2022-11-02T08:41:10;12.20;99.90
4727;DHT22;2377;51.734;8.950;2022-11-02T08:43:42;12.10;99.90
4727;DHT22;2377;51.734;8.950;2022-11-02T08:46:09;12.20;99.90
4727;DHT22;2377;51.734;8.950;2022-11-02T08:48:36;12.20;99.90
4727;DHT22;2377;51.734;8.950;2022-11-02T08:51:05;12.20;99.90
4727;DHT22;2377;51.734;8.950;2022-11-02T08:53:33;12.30;99.90
4727;DHT22;2377;51.734;8.950;2022-11-02T08:56:00;12.30;99.90
4727;DHT22;2377;51.734;8.950;2022-11-02T08:58:28;12.50;99.90
4727;DHT22;2377;51.734;8.950;2022-11-02T09:00:55;12.80;99.90
4727;DHT22;2377;51.734;8.950;2022-11-02T09:03:23;12.90;99.90
4727;DHT22;2377;51.734;8.950;2022-11-02T09:05:56;12.80;99.90
4727;DHT22;2377;51.734;8.950;2022-11-02T09:08:26;12.60;99.90
4727;DHT22;2377;51.734;8.950;2022-11-02T09:10:57;12.80;99.90
4727;DHT22;2377;51.734;8.950;2022-11-02T09:13:26;12.70;99.90
4727;DHT22;2377;51.734;8.950;2022-11-02T09:15:55;12.80;99.90
4727;DHT22;2377;51.734;8.950;2022-11-02T09:18:23;12.60;99.90
4727;DHT22;2377;51.734;8.950;2022-11-02T09:20:51;12.60;99.90
4727;DHT22;2377;51.734;8.950;2022-11-02T09:23:19;12.70;99.90
4727;DHT22;2377;51.734;8.950;2022-11-02T09:25:49;12.60;99.90
4727;DHT22;2377;51.734;8.950;2022-11-02T09:28:17;12.60;99.90
4727;DHT22;2377;51.734;8.950;2022-11-02T09:30:44;12.60;99.90
4727;DHT22;2377;51.734;8.950;2022-11-02T09:33:11;12.90;99.90
4727;DHT22;2377;51.734;8.950;2022-11-02T09:35:42;12.80;99.90
4727;DHT22;2377;51.734;8.950;2022-11-02T09:38:10;12.80;99.90
4727;DHT22;2377;51.734;8.950;2022-11-02T09:40:39;12.80;94.80
4727;DHT22;2377;51.734;8.950;2022-11-02T09:43:16;13.00;68.00
4727;DHT22;2377;51.734;8.950;2022-11-02T09:45:55;13.30;69.40
4727;DHT22;2377;51.734;8.950;2022-11-02T09:48:27;13.50;53.00
4727;DHT22;2377;51.734;8.950;2022-11-02T09:51:02;13.60;48.10
4727;DHT22;2377;51.734;8.950;2022-11-02T09:53:38;13.40;43.00
4727;DHT22;2377;51.734;8.950;2022-11-02T09:56:11;13.80;25.80
4727;DHT22;2377;51.734;8.950;2022-11-02T09:58:45;14.50;6.10
4727;DHT22;2377;51.734;8.950;2022-11-02T10:01:28;14.80;15.60
4727;DHT22;2377;51.734;8.950;2022-11-02T10:04:25;14.80;9.80
4727;DHT22;2377;51.734;8.950;2022-11-02T10:07:17;14.80;3.90
4727;DHT22;2377;51.734;8.950;2022-11-02T10:09:57;14.80;1.00
4727;DHT22;2377;51.734;8.950;2022-11-02T10:12:35;15.10;1.00
4727;DHT22;2377;51.734;8.950;2022-11-02T10:15:13;15.20;1.00
4727;DHT22;2377;51.734;8.950;2022-11-02T10:17:46;14.60;2.20
4727;DHT22;2377;51.734;8.950;2022-11-02T10:20:24;14.50;2.40
4727;DHT22;2377;51.734;8.950;2022-11-02T10:22:57;14.60;1.00
4727;DHT22;2377;51.734;8.950;2022-11-02T10:25:29;14.80;1.00
4727;DHT22;2377;51.734;8.950;2022-11-02T10:28:01;14.70;1.00
4727;DHT22;2377;51.734;8.950;2022-11-02T10:30:36;14.50;9.80
4727;DHT22;2377;51.734;8.950;2022-11-02T10:33:11;14.30;14.20
4727;DHT22;2377;51.734;8.950;2022-11-02T10:35:45;14.00;15.90
4727;DHT22;2377;51.734;8.950;2022-11-02T10:38:25;14.00;21.40
4727;DHT22;2377;51.734;8.950;2022-11-02T10:41:26;14.10;15.20
4727;DHT22;2377;51.734;8.950;2022-11-02T10:44:19;14.10;18.70
4727;DHT22;2377;51.734;8.950;2022-11-02T10:47:03;14.10;22.90
4727;DHT22;2377;51.734;8.950;2022-11-02T10:50:03;14.20;2.20
4727;DHT22;2377;51.734;8.950;2022-11-02T10:52:43;14.40;1.20
4727;DHT22;2377;51.734;8.950;2022-11-02T10:55:19;14.30;10.30
4727;DHT22;2377;51.734;8.950;2022-11-02T10:57:54;14.30;9.30
4727;DHT22;2377;51.734;8.950;2022-11-02T11:00:27;14.10;1.00
4727;DHT22;2377;51.734;8.950;2022-11-02T11:03:10;14.20;1.50
4727;DHT22;2377;51.734;8.950;2022-11-02T11:05:53;14.20;1.00
4727;DHT22;2377;51.734;8.950;2022-11-02T11:08:42;14.20;1.00
4727;DHT22;2377;51.734;8.950;2022-11-02T11:11:13;14.10;1.00
4727;DHT22;2377;51.734;8.950;2022-11-02T11:13:53;14.20;1.00
4727;DHT22;2377;51.734;8.950;2022-11-02T11:16:39;14.20;1.00
4727;DHT22;2377;51.734;8.950;2022-11-02T11:19:21;14.10;1.00
4727;DHT22;2377;51.734;8.950;2022-11-02T11:21:50;14.10;1.00
4727;DHT22;2377;51.734;8.950;2022-11-02T11:24:26;14.10;1.00
4727;DHT22;2377;51.734;8.950;2022-11-02T11:27:13;14.10;1.00
4727;DHT22;2377;51.734;8.950;2022-11-02T11:29:48;14.10;1.00
4727;DHT22;2377;51.734;8.950;2022-11-02T11:32:19;14.00;1.00
4727;DHT22;2377;51.734;8.950;2022-11-02T11:34:57;13.90;1.00
4727;DHT22;2377;51.734;8.950;2022-11-02T11:37:27;13.80;1.00
4727;DHT22;2377;51.734;8.950;2022-11-02T11:39:58;13.80;1.00
4727;DHT22;2377;51.734;8.950;2022-11-02T11:42:29;13.60;1.00
4727;DHT22;2377;51.734;8.950;2022-11-02T11:45:03;13.60;1.00
4727;DHT22;2377;51.734;8.950;2022-11-02T11:47:35;13.60;1.00
4727;DHT22;2377;51.734;8.950;2022-11-02T11:50:11;13.60;1.00
4727;DHT22;2377;51.734;8.950;2022-11-02T11:52:41;13.50;5.40
4727;DHT22;2377;51.734;8.950;2022-11-02T11:55:21;13.60;3.20
4727;DHT22;2377;51.734;8.950;2022-11-02T11:58:09;13.60;11.00
4727;DHT22;2377;51.734;8.950;2022-11-02T12:00:42;13.60;6.90
4727;DHT22;2377;51.734;8.950;2022-11-02T12:03:10;13.80;1.00
4727;DHT22;2377;51.734;8.950;2022-11-02T12:05:52;13.80;1.70
4727;DHT22;2377;51.734;8.950;2022-11-02T12:08:40;14.00;1.00
4727;DHT22;2377;51.734;8.950;2022-11-02T12:11:29;14.00;1.00
4727;DHT22;2377;51.734;8.950;2022-11-02T12:14:21;14.10;1.00
4727;DHT22;2377;51.734;8.950;2022-11-02T12:17:30;14.10;1.00
4727;DHT22;2377;51.734;8.950;2022-11-02T12:20:18;14.10;1.00
4727;DHT22;2377;51.734;8.950;2022-11-02T12:23:11;14.30;1.00
4727;DHT22;2377;51.734;8.950;2022-11-02T12:25:55;14.30;1.00
4727;DHT22;2377;51.734;8.950;2022-11-02T12:28:38;14.30;1.00
4727;DHT22;2377;51.734;8.950;2022-11-02T12:31:18;14.20;1.00
4727;DHT22;2377;51.734;8.950;2022-11-02T12:34:09;14.20;1.00
4727;DHT22;2377;51.734;8.950;2022-11-02T12:37:01;14.10;1.00
4727;DHT22;2377;51.734;8.950;2022-11-02T12:39:43;14.00;1.00
4727;DHT22;2377;51.734;8.950;2022-11-02T12:42:25;14.10;1.00
4727;DHT22;2377;51.734;8.950;2022-11-02T12:45:04;14.20;1.00
4727;DHT22;2377;51.734;8.950;2022-11-02T12:47:55;14.20;1.00
4727;DHT22;2377;51.734;8.950;2022-11-02T12:50:36;14.10;1.00
4727;DHT22;2377;51.734;8.950;2022-11-02T12:53:25;14.10;1.00
4727;DHT22;2377;51.734;8.950;2022-11-02T12:56:15;14.10;1.00
4727;DHT22;2377;51.734;8.950;2022-11-02T12:58:47;14.20;1.00
4727;DHT22;2377;51.734;8.950;2022-11-02T13:01:20;14.10;1.00
4727;DHT22;2377;51.734;8.950;2022-11-02T13:03:55;14.10;1.00
4727;DHT22;2377;51.734;8.950;2022-11-02T13:06:29;14.20;1.00
4727;DHT22;2377;51.734;8.950;2022-11-02T13:09:04;14.20;1.00
4727;DHT22;2377;51.734;8.950;2022-11-02T13:11:39;14.20;1.00
4727;DHT22;2377;51.734;8.950;2022-11-02T13:14:14;14.10;1.00
4727;DHT22;2377;51.734;8.950;2022-11-02T13:16:53;14.20;1.00
4727;DHT22;2377;51.734;8.950;2022-11-02T13:19:42;14.20;1.00
4727;DHT22;2377;51.734;8.950;2022-11-02T13:22:19;14.10;1.00
4727;DHT22;2377;51.734;8.950;2022-11-02T13:24:56;14.20;1.00
4727;DHT22;2377;51.734;8.950;2022-11-02T13:27:45;14.10;1.00
4727;DHT22;2377;51.734;8.950;2022-11-02T13:30:18;13.80;1.00
4727;DHT22;2377;51.734;8.950;2022-11-02T13:32:55;13.80;1.00
4727;DHT22;2377;51.734;8.950;2022-11-02T13:35:34;13.80;1.00
4727;DHT22;2377;51.734;8.950;2022-11-02T13:38:23;13.80;1.00
4727;DHT22;2377;51.734;8.950;2022-11-02T13:41:11;13.80;1.00
4727;DHT22;2377;51.734;8.950;2022-11-02T13:44:11;13.90;1.00
4727;DHT22;2377;51.734;8.950;2022-11-02T13:47:30;13.90;1.00
4727;DHT22;2377;51.734;8.950;2022-11-02T13:50:15;13.90;1.00
4727;DHT22;2377;51.734;8.950;2022-11-02T13:53:12;14.00;1.00
4727;DHT22;2377;51.734;8.950;2022-11-02T13:56:10;13.90;1.00
4727;DHT22;2377;51.734;8.950;2022-11-02T13:59:01;14.00;1.00
4727;DHT22;2377;51.734;8.950;2022-11-02T14:01:39;14.00;1.00
4727;DHT22;2377;51.734;8.950;2022-11-02T14:04:12;14.00;1.00
4727;DHT22;2377;51.734;8.950;2022-11-02T14:07:17;14.00;1.00
4727;DHT22;2377;51.734;8.950;2022-11-02T14:09:50;13.90;1.00
4727;DHT22;2377;51.734;8.950;2022-11-02T14:12:27;14.00;1.00
4727;DHT22;2377;51.734;8.950;2022-11-02T14:15:57;13.90;1.00
4727;DHT22;2377;51.734;8.950;2022-11-02T14:18:29;13.80;1.00
4727;DHT22;2377;51.734;8.950;2022-11-02T14:24:56;13.80;1.00
4727;DHT22;2377;51.734;8.950;2022-11-02T14:31:48;13.80;1.00
4727;DHT22;2377;51.734;8.950;2022-11-02T14:35:21;13.70;1.00
4727;DHT22;2377;51.734;8.950;2022-11-02T14:41:46;13.60;1.00
4727;DHT22;2377;51.734;8.950;2022-11-02T14:45:02;13.60;1.00
4727;DHT22;2377;51.734;8.950;2022-11-02T14:48:00;13.60;1.00
4727;DHT22;2377;51.734;8.950;2022-11-02T14:50:34;13.60;1.00
4727;DHT22;2377;51.734;8.950;2022-11-02T14:53:07;13.50;1.00
4727;DHT22;2377;51.734;8.950;2022-11-02T14:55:52;13.50;1.00
4727;DHT22;2377;51.734;8.950;2022-11-02T14:58:29;13.40;1.00
4727;DHT22;2377;51.734;8.950;2022-11-02T15:01:03;13.40;1.00
4727;DHT22;2377;51.734;8.950;2022-11-02T15:03:44;13.30;1.00
4727;DHT22;2377;51.734;8.950;2022-11-02T15:06:31;13.30;1.00
4727;DHT22;2377;51.734;8.950;2022-11-02T15:09:09;13.20;1.00
4727;DHT22;2377;51.734;8.950;2022-11-02T15:11:49;13.20;1.00
4727;DHT22;2377;51.734;8.950;2022-11-02T15:14:53;13.10;1.00
4727;DHT22;2377;51.734;8.950;2022-11-02T15:17:57;13.10;1.00
4727;DHT22;2377;51.734;8.950;2022-11-02T15:20:45;13.10;1.00
4727;DHT22;2377;51.734;8.950;2022-11-02T15:23:45;13.00;1.00
4727;DHT22;2377;51.734;8.950;2022-11-02T15:26:24;12.90;1.00
4727;DHT22;2377;51.734;8.950;2022-11-02T15:29:11;12.90;1.00
4727;DHT22;2377;51.734;8.950;2022-11-02T15:32:16;12.80;4.30
4727;DHT22;2377;51.734;8.950;2022-11-02T15:34:50;12.70;4.80
4727;DHT22;2377;51.734;8.950;2022-11-02T15:37:37;12.60;3.00
4727;DHT22;2377;51.734;8.950;2022-11-02T15:40:19;12.60;3.90
4727;DHT22;2377;51.734;8.950;2022-11-02T15:43:03;12.50;7.30
4727;DHT22;2377;51.734;8.950;2022-11-02T15:45:55;12.50;5.20
4727;DHT22;2377;51.734;8.950;2022-11-02T15:48:40;12.40;10.70
4727;DHT22;2377;51.734;8.950;2022-11-02T15:51:29;12.30;12.80
4727;DHT22;2377;51.734;8.950;2022-11-02T15:54:46;12.30;17.40
4727;DHT22;2377;51.734;8.950;2022-11-02T15:57:50;12.20;19.50
4727;DHT22;2377;51.734;8.950;2022-11-02T16:00:31;12.10;27.00
4727;DHT22;2377;51.734;8.950;2022-11-02T16:03:15;12.00;28.10
4727;DHT22;2377;51.734;8.950;2022-11-02T16:05:46;11.90;28.70
4727;DHT22;2377;51.734;8.950;2022-11-02T16:08:21;11.80;36.00
4727;DHT22;2377;51.734;8.950;2022-11-02T16:11:12;11.60;40.40
4727;DHT22;2377;51.734;8.950;2022-11-02T16:14:14;11.50;41.10
4727;DHT22;2377;51.734;8.950;2022-11-02T16:16:52;11.30;40.90
4727;DHT22;2377;51.734;8.950;2022-11-02T16:19:31;11.30;49.70
4727;DHT22;2377;51.734;8.950;2022-11-02T16:22:22;11.10;52.20
4727;DHT22;2377;51.734;8.950;2022-11-02T16:25:15;11.10;55.90
4727;DHT22;2377;51.734;8.950;2022-11-02T16:28:08;10.90;59.60
4727;DHT22;2377;51.734;8.950;2022-11-02T16:31:00;10.80;61.60
4727;DHT22;2377;51.734;8.950;2022-11-02T16:33:38;10.80;66.40
4727;DHT22;2377;51.734;8.950;2022-11-02T16:36:22;10.70;74.70
4727;DHT22;2377;51.734;8.950;2022-11-02T16:39:02;10.70;77.70
4727;DHT22;2377;51.734;8.950;2022-11-02T16:41:50;10.60;71.20
4727;DHT22;2377;51.734;8.950;2022-11-02T16:44:34;10.60;67.20
4727;DHT22;2377;51.734;8.950;2022-11-02T16:47:16;10.60;68.20
4727;DHT22;2377;51.734;8.950;2022-11-02T16:56:27;10.30;70.00
4727;DHT22;2377;51.734;8.950;2022-11-02T16:59:03;10.20;73.40
4727;DHT22;2377;51.734;8.950;2022-11-02T17:02:02;10.10;80.20
4727;DHT22;2377;51.734;8.950;2022-11-02T17:04:59;10.00;90.40
4727;DHT22;2377;51.734;8.950;2022-11-02T17:07:57;10.00;82.40
4727;DHT22;2377;51.734;8.950;2022-11-02T17:10:34;10.00;83.40
4727;DHT22;2377;51.734;8.950;2022-11-02T17:13:16;9.80;88.10
4727;DHT22;2377;51.734;8.950;2022-11-02T17:15:54;9.80;89.60
4727;DHT22;2377;51.734;8.950;2022-11-02T17:19:08;9.60;96.80
4727;DHT22;2377;51.734;8.950;2022-11-02T17:22:24;9.60;92.50